EGMC/SEN METAR and TAF weather

Enter ICAO airport designator
Station Type Date Time Source
EGMC METAR 2019/08/19 12:50 UTC NOAA

EGMC 191250Z 24016KT 9999 SCT047TCU 21/10 Q1013


Station Type Date Time Source
EGMC Decoded METAR 2019/08/19 12:50 UTC NOAA

Station name not available
Aug 19, 2019 - 08:50 AM EDT / 2019.08.19 1250 UTC
Wind: from the WSW (240 degrees) at 18 MPH (16 KT):0
Visibility: greater than 7 mile(s):0
Sky conditions: partly cloudy
Weather: Towering cumulus clouds observed
Temperature: 69 F (21 C)
Dew Point: 50 F (10 C)
Relative Humidity: 49%
Pressure (altimeter): 29.91 in. Hg (1013 hPa)
ob: EGMC 191250Z 24016KT 9999 SCT047TCU 21/10 Q1013
cycle: 13

Station Type Date Time Source
EGMC TAF 2016/04/18 18:00 UTC NOAA

TAF EGMC 181658Z 1818/1903 28008KT 9999 BKN045

Example: see airport list